Time;durP1;ratioP1;P1;durP2;ratioP2;P2;SDS_P1;SDS_P2;PMS_P1;PMS_P2;Temp;Humidity;BMP_temperature;BMP_pressure;BME280_temperature;BME280_humidity;BME280_pressure;Samples;Min_cycle;Max_cycle;Signal;HPM_P1;HPM_P2
2021/07/22 00:00:42;;;;;;;11.05;4.78;;;26.50;93.60;;;;;;5034793;28;20049;-49
2021/07/22 00:03:16;;;;;;;9.93;4.93;;;26.50;93.70;;;;;;5034070;28;20045;-49
2021/07/22 00:05:47;;;;;;;10.15;5.68;;;26.50;94.00;;;;;;5034537;28;20383;-50
2021/07/22 00:08:16;;;;;;;9.07;5.50;;;26.50;93.90;;;;;;5034415;28;20041;-48
2021/07/22 00:10:45;;;;;;;9.32;5.00;;;26.50;94.00;;;;;;5034549;28;20093;-50
2021/07/22 00:13:13;;;;;;;6.97;4.50;;;26.40;94.10;;;;;;5034427;28;20128;-52
2021/07/22 00:15:41;;;;;;;10.77;5.35;;;26.40;94.20;;;;;;5034128;28;20150;-48
2021/07/22 00:18:10;;;;;;;7.78;5.78;;;26.40;94.30;;;;;;5034118;28;20111;-49
2021/07/22 00:20:38;;;;;;;12.20;5.70;;;26.40;94.40;;;;;;5032650;28;20121;-51
2021/07/22 00:23:13;;;;;;;9.95;4.95;;;26.40;94.50;;;;;;5034314;28;20046;-50
2021/07/22 00:25:46;;;;;;;9.90;5.93;;;26.40;94.60;;;;;;5034520;28;20088;-49
2021/07/22 00:28:15;;;;;;;12.63;5.20;;;26.40;94.70;;;;;;5034181;28;20045;-50
2021/07/22 00:30:46;;;;;;;8.63;5.35;;;26.40;94.70;;;;;;5034612;28;20045;-50
2021/07/22 00:33:17;;;;;;;9.38;5.00;;;26.40;94.90;;;;;;5034355;28;20049;-49
2021/07/22 00:35:49;;;;;;;9.57;5.32;;;26.30;94.90;;;;;;5032015;28;20041;-50
2021/07/22 00:38:20;;;;;;;7.78;5.15;;;26.30;95.00;;;;;;5033556;28;20142;-49
2021/07/22 00:40:48;;;;;;;9.70;5.60;;;26.30;95.10;;;;;;5033921;28;20124;-51
2021/07/22 00:43:17;;;;;;;9.38;5.55;;;26.30;95.20;;;;;;5032729;28;20368;-52
2021/07/22 00:45:48;;;;;;;11.00;5.85;;;26.30;95.20;;;;;;5033744;28;20053;-52
2021/07/22 00:48:15;;;;;;;10.75;6.22;;;26.30;95.20;;;;;;5034170;28;20042;-49
2021/07/22 00:50:44;;;;;;;7.30;5.25;;;26.30;95.30;;;;;;5032076;28;20464;-52
2021/07/22 00:53:14;;;;;;;8.18;5.60;;;26.30;95.40;;;;;;5032091;28;20395;-51
2021/07/22 00:55:50;;;;;;;8.75;5.05;;;26.20;95.40;;;;;;5032385;28;20095;-49
2021/07/22 00:58:23;;;;;;;7.72;5.53;;;26.10;95.50;;;;;;5032352;28;20076;-48
2021/07/22 01:00:56;;;;;;;14.25;5.43;;;26.10;95.70;;;;;;5016462;28;20373;-48
2021/07/22 01:03:27;;;;;;;10.98;5.53;;;26.20;95.70;;;;;;5033797;28;20042;-47
2021/07/22 01:05:56;;;;;;;8.45;5.85;;;26.10;95.80;;;;;;5015692;28;20511;-51
2021/07/22 01:08:31;;;;;;;9.80;5.72;;;26.10;95.80;;;;;;5032928;28;20440;-50
2021/07/22 01:11:22;;;;;;;15.38;6.40;;;26.00;95.80;;;;;;5032948;28;20529;-51
2021/07/22 01:13:53;;;;;;;9.30;5.63;;;26.00;95.90;;;;;;5033546;28;20135;-51
2021/07/22 01:16:24;;;;;;;9.52;5.72;;;26.00;96.00;;;;;;5033531;28;20041;-51
2021/07/22 01:18:59;;;;;;;;;;;26.00;96.30;;;;;;5033761;28;20057;-51
2021/07/22 01:21:33;;;;;;;8.40;6.13;;;25.90;96.30;;;;;;5033152;28;19932;-50
2021/07/22 01:24:06;;;;;;;10.82;5.43;;;25.90;96.30;;;;;;5032819;28;20582;-51
2021/07/22 01:27:05;;;;;;;9.55;5.38;;;25.90;96.40;;;;;;5032615;28;20077;-52
2021/07/22 01:29:45;;;;;;;11.85;5.07;;;25.90;96.50;;;;;;5032075;28;20511;-51
2021/07/22 01:32:21;;;;;;;10.45;5.45;;;25.90;96.60;;;;;;5033372;28;20048;-52
2021/07/22 01:34:53;;;;;;;10.25;5.63;;;25.90;96.60;;;;;;5033367;28;20041;-51
2021/07/22 01:37:25;;;;;;;11.80;6.07;;;25.90;96.70;;;;;;5031664;28;20519;-48
2021/07/22 01:39:55;;;;;;;11.43;6.10;;;25.80;96.80;;;;;;5031285;28;20124;-49
2021/07/22 01:42:25;;;;;;;12.50;6.32;;;25.80;96.80;;;;;;5033146;28;20514;-48
2021/07/22 01:44:54;;;;;;;9.32;5.25;;;25.70;96.80;;;;;;5033084;28;20061;-53
2021/07/22 01:47:24;;;;;;;12.25;4.93;;;25.70;96.90;;;;;;5033156;28;20041;-50
2021/07/22 01:49:57;;;;;;;11.48;5.28;;;25.70;97.00;;;;;;5032106;28;20037;-49
2021/07/22 01:52:27;;;;;;;11.20;5.93;;;25.70;97.10;;;;;;5031650;28;20049;-48
2021/07/22 01:54:56;;;;;;;8.38;4.88;;;25.70;97.20;;;;;;5032391;28;20519;-47
2021/07/22 01:57:34;;;;;;;9.27;5.00;;;25.70;97.30;;;;;;5035062;28;20120;-49
2021/07/22 02:00:05;;;;;;;10.32;5.38;;;25.60;97.40;;;;;;5035495;28;20559;-49
2021/07/22 02:02:44;;;;;;;10.73;6.78;;;25.60;97.50;;;;;;5036836;28;20056;-51
2021/07/22 02:05:27;;;;;;;8.70;6.00;;;25.60;97.50;;;;;;5035934;28;20076;-48
2021/07/22 02:08:00;;;;;;;12.90;7.45;;;25.60;97.50;;;;;;5035407;28;20046;-47
2021/07/22 02:10:30;;;;;;;10.88;5.97;;;25.60;97.50;;;;;;5036109;28;20099;-49
2021/07/22 02:12:59;;;;;;;11.10;6.50;;;25.60;97.60;;;;;;5035437;28;20045;-48
2021/07/22 02:15:40;;;;;;;11.77;6.63;;;25.60;97.50;;;;;;5035689;28;20045;-48
2021/07/22 02:18:08;;;;;;;11.18;6.60;;;25.60;97.50;;;;;;5035422;28;20087;-49
2021/07/22 02:20:37;;;;;;;10.73;6.63;;;25.60;97.40;;;;;;5035597;28;20054;-50
2021/07/22 02:23:07;;;;;;;10.55;7.40;;;25.50;97.30;;;;;;5036575;28;20049;-50
2021/07/22 02:25:57;;;;;;;9.45;6.65;;;25.50;97.40;;;;;;5035598;28;20119;-48
2021/07/22 02:28:28;;;;;;;10.40;6.32;;;25.50;97.40;;;;;;5036523;28;20480;-50
2021/07/22 02:31:00;;;;;;;11.10;6.82;;;25.50;97.50;;;;;;5036349;28;20077;-51
2021/07/22 02:33:30;;;;;;;13.57;7.03;;;25.50;97.50;;;;;;5035556;28;20068;-51
2021/07/22 02:36:00;;;;;;;12.68;7.15;;;25.40;97.40;;;;;;5035042;28;20045;-49
2021/07/22 02:38:58;;;;;;;12.77;6.75;;;25.40;97.40;;;;;;5036547;28;20057;-49
2021/07/22 02:41:29;;;;;;;12.00;7.70;;;25.40;97.40;;;;;;5035590;28;20072;-48
2021/07/22 02:43:59;;;;;;;14.63;6.85;;;25.50;97.40;;;;;;5035877;28;20042;-50
2021/07/22 02:46:35;;;;;;;11.23;7.85;;;25.50;97.30;;;;;;5034577;28;20095;-48
2021/07/22 02:49:06;;;;;;;11.70;6.38;;;25.50;97.30;;;;;;5035935;28;20431;-51
2021/07/22 02:51:36;;;;;;;13.57;8.85;;;25.50;97.20;;;;;;5036515;28;20476;-52
2021/07/22 02:54:12;;;;;;;10.38;7.20;;;25.50;97.10;;;;;;5036337;28;20041;-51
2021/07/22 02:56:42;;;;;;;15.95;8.23;;;25.50;97.00;;;;;;5035302;28;20421;-49
2021/07/22 02:59:21;;;;;;;17.58;8.30;;;25.50;97.00;;;;;;5034240;28;20089;-51
2021/07/22 03:01:53;;;;;;;11.82;6.75;;;25.50;96.90;;;;;;5034598;28;20061;-48
2021/07/22 03:04:26;;;;;;;13.52;8.35;;;25.50;96.80;;;;;;5036095;28;20056;-52
2021/07/22 03:07:12;;;;;;;11.98;7.10;;;25.50;96.80;;;;;;5034520;28;20045;-50
2021/07/22 03:09:42;;;;;;;16.25;8.35;;;25.50;96.80;;;;;;5035701;28;20103;-48
2021/07/22 03:12:13;;;;;;;13.02;7.72;;;25.50;96.80;;;;;;5034669;28;20107;-48
2021/07/22 03:14:53;;;;;;;12.50;7.82;;;25.50;96.70;;;;;;5035797;28;20037;-51
2021/07/22 03:17:22;;;;;;;12.57;7.78;;;25.40;96.70;;;;;;5035670;28;20044;-51
2021/07/22 03:19:52;;;;;;;11.75;7.45;;;25.40;96.70;;;;;;5034460;28;20084;-49
2021/07/22 03:22:26;;;;;;;11.35;7.22;;;25.40;96.70;;;;;;5034266;28;20053;-48
2021/07/22 03:25:13;;;;;;;12.38;7.47;;;25.40;96.80;;;;;;5035529;28;20176;-49
2021/07/22 03:27:59;;;;;;;13.07;7.40;;;25.40;96.90;;;;;;5033426;28;20048;-50
2021/07/22 03:30:49;;;;;;;10.82;7.82;;;25.40;97.00;;;;;;5033218;28;20148;-48
2021/07/22 03:33:24;;;;;;;10.18;6.25;;;25.40;97.10;;;;;;5035335;28;20409;-50
2021/07/22 03:35:58;;;;;;;10.98;6.85;;;25.50;97.20;;;;;;5035268;28;20111;-47
2021/07/22 03:38:32;;;;;;;14.25;7.75;;;25.50;97.30;;;;;;5035414;28;20054;-51
2021/07/22 03:41:22;;;;;;;11.70;7.13;;;25.50;97.40;;;;;;5035261;28;20044;-47
2021/07/22 03:43:55;;;;;;;12.55;7.70;;;25.50;97.60;;;;;;5029447;28;20045;-48
2021/07/22 03:46:27;;;;;;;13.90;7.57;;;25.50;97.80;;;;;;5031910;28;20073;-53
2021/07/22 03:48:56;;;;;;;15.07;6.95;;;25.50;98.30;;;;;;5032083;28;20056;-52
2021/07/22 03:51:28;;;;;;;12.20;7.60;;;25.50;98.20;;;;;;5032503;28;20107;-51
2021/07/22 03:53:56;;;;;;;13.80;7.47;;;25.50;98.20;;;;;;5031991;28;20091;-49
2021/07/22 03:56:27;;;;;;;12.20;6.90;;;25.50;98.30;;;;;;5031097;28;20519;-51
2021/07/22 03:59:03;;;;;;;18.65;7.40;;;25.50;98.30;;;;;;5030621;28;20152;-48
2021/07/22 04:01:39;;;;;;;13.48;7.88;;;25.50;98.30;;;;;;5030734;28;20048;-48
2021/07/22 04:04:30;;;;;;;10.75;7.43;;;25.60;98.40;;;;;;5032168;28;20389;-48
2021/07/22 04:07:02;;;;;;;10.93;6.60;;;25.60;98.30;;;;;;5032476;28;20135;-49
2021/07/22 04:10:00;;;;;;;11.70;7.18;;;25.60;98.30;;;;;;5035590;28;20123;-48
2021/07/22 04:13:00;;;;;;;11.50;7.28;;;25.70;98.20;;;;;;5038102;28;20053;-47
2021/07/22 04:15:37;;;;;;;13.60;6.85;;;25.80;98.20;;;;;;5030373;28;20091;-49
2021/07/22 04:18:24;;;;;;;13.57;6.82;;;25.80;98.10;;;;;;5031896;28;20423;-47
2021/07/22 04:21:12;;;;;;;14.75;7.13;;;25.90;98.00;;;;;;5032360;28;20087;-47
2021/07/22 04:24:04;;;;;;;11.73;6.60;;;26.00;97.90;;;;;;5031670;28;20045;-47
2021/07/22 04:26:44;;;;;;;15.73;8.15;;;26.00;97.80;;;;;;5032214;28;20923;-48
2021/07/22 04:29:40;;;;;;;;;;;26.10;97.70;;;;;;5030862;28;20487;-48
2021/07/22 04:32:10;;;;;;;10.45;6.18;;;26.20;97.50;;;;;;5031373;28;19917;-48
2021/07/22 04:35:16;;;;;;;10.93;6.53;;;26.30;97.50;;;;;;5027978;28;20051;-49
2021/07/22 04:38:04;;;;;;;10.75;5.93;;;26.40;97.40;;;;;;5028952;28;20042;-48
2021/07/22 04:41:08;;;;;;;15.98;7.68;;;26.40;97.30;;;;;;5010903;28;20052;-50
2021/07/22 04:44:05;;;;;;;13.48;7.68;;;26.60;97.20;;;;;;5029964;28;20094;-48
2021/07/22 04:46:53;;;;;;;11.23;6.82;;;26.60;96.90;;;;;;5031146;28;20077;-53
2021/07/22 04:49:53;;;;;;;11.25;6.28;;;26.70;96.90;;;;;;5037536;28;20061;-45
2021/07/22 04:52:28;;;;;;;11.73;7.25;;;26.90;96.60;;;;;;5011005;28;20064;-48
2021/07/22 04:55:04;;;;;;;;;;;27.00;96.40;;;;;;5010628;28;20045;-53
2021/07/22 04:57:34;;;;;;;13.90;7.75;;;27.10;96.20;;;;;;5011806;28;19976;-50
2021/07/22 05:00:07;;;;;;;11.43;6.45;;;27.20;96.10;;;;;;5009641;28;20145;-48
2021/07/22 05:02:59;;;;;;;15.95;6.60;;;27.30;95.70;;;;;;5009498;28;20129;-48
2021/07/22 05:05:35;;;;;;;13.52;6.80;;;27.40;95.40;;;;;;5011347;28;20041;-48
2021/07/22 05:08:30;;;;;;;11.55;7.03;;;27.50;95.10;;;;;;5013410;28;20046;-50
2021/07/22 05:11:08;;;;;;;9.73;6.38;;;27.70;94.60;;;;;;5010224;28;20045;-50
2021/07/22 05:13:54;;;;;;;11.70;7.80;;;27.80;94.20;;;;;;5010292;28;20096;-51
2021/07/22 05:16:42;;;;;;;13.45;7.28;;;28.00;93.70;;;;;;5011069;28;20053;-49
2021/07/22 05:19:31;;;;;;;14.65;7.13;;;28.10;93.20;;;;;;5015865;28;20050;-48
2021/07/22 05:22:23;;;;;;;10.43;6.75;;;28.20;92.60;;;;;;5010135;28;20512;-48
2021/07/22 05:25:01;;;;;;;12.13;6.32;;;28.40;92.20;;;;;;5010285;28;20042;-48
2021/07/22 05:27:50;;;;;;;11.65;6.25;;;28.50;91.80;;;;;;5009671;28;20052;-47
2021/07/22 05:30:44;;;;;;;9.80;6.70;;;28.60;91.50;;;;;;5047617;28;20080;-48
2021/07/22 05:33:17;;;;;;;10.50;6.50;;;28.70;91.00;;;;;;5010137;28;20121;-50
2021/07/22 05:35:54;;;;;;;12.70;6.78;;;28.80;90.80;;;;;;4996078;28;20042;-48
2021/07/22 05:38:38;;;;;;;11.18;6.25;;;28.90;90.30;;;;;;5010847;28;20124;-47
2021/07/22 05:41:10;;;;;;;13.25;6.35;;;29.00;89.80;;;;;;5011987;28;20447;-48
2021/07/22 05:43:38;;;;;;;8.80;5.57;;;29.10;89.50;;;;;;5012417;28;20510;-48
2021/07/22 05:46:06;;;;;;;9.43;5.80;;;29.20;89.10;;;;;;5013246;28;20048;-47
2021/07/22 05:48:34;;;;;;;12.85;6.88;;;29.30;88.60;;;;;;5012338;28;20069;-47
2021/07/22 05:51:03;;;;;;;9.70;6.88;;;29.50;88.40;;;;;;5012577;28;20061;-48
2021/07/22 05:53:32;;;;;;;10.77;6.10;;;29.60;87.70;;;;;;5013112;28;20404;-48
2021/07/22 05:56:01;;;;;;;13.48;6.50;;;29.60;86.70;;;;;;5013059;28;20049;-49
2021/07/22 05:58:29;;;;;;;9.40;5.90;;;29.80;86.20;;;;;;5013207;28;20109;-49
2021/07/22 06:00:59;;;;;;;10.35;6.80;;;29.80;85.10;;;;;;5013331;28;20050;-48
2021/07/22 06:03:26;;;;;;;9.50;5.78;;;29.80;83.90;;;;;;5012663;28;20052;-48
2021/07/22 06:05:54;;;;;;;14.68;6.40;;;29.90;83.20;;;;;;5011466;28;20053;-48
2021/07/22 06:08:22;;;;;;;10.20;6.38;;;29.90;82.50;;;;;;5012763;28;20050;-49
2021/07/22 06:10:49;;;;;;;8.48;5.32;;;30.00;82.00;;;;;;5013141;28;20045;-48
2021/07/22 06:13:17;;;;;;;10.23;5.68;;;30.10;81.80;;;;;;5013192;28;20045;-49
2021/07/22 06:16:03;;;;;;;13.57;6.35;;;30.10;81.40;;;;;;5013426;28;20589;-49
2021/07/22 06:18:31;;;;;;;10.77;6.53;;;30.20;81.10;;;;;;5012744;28;20050;-48
2021/07/22 06:20:59;;;;;;;15.23;6.32;;;30.30;80.10;;;;;;5012458;28;20169;-48
2021/07/22 06:23:26;;;;;;;9.00;4.88;;;30.40;79.90;;;;;;5011715;28;20053;-48
2021/07/22 06:26:00;;;;;;;9.13;5.82;;;30.50;79.70;;;;;;5013006;28;20050;-48
2021/07/22 06:28:29;;;;;;;11.75;6.25;;;30.40;78.70;;;;;;5011872;28;20048;-48
2021/07/22 06:30:56;;;;;;;13.25;5.47;;;30.40;78.20;;;;;;5011766;28;20113;-48
2021/07/22 06:33:24;;;;;;;9.80;6.07;;;30.40;76.50;;;;;;5012967;28;20133;-48
2021/07/22 06:35:52;;;;;;;10.55;5.93;;;30.40;76.60;;;;;;5012085;28;20043;-47
2021/07/22 06:38:20;;;;;;;10.30;6.10;;;30.50;77.50;;;;;;5012485;28;20046;-48
2021/07/22 06:40:47;;;;;;;8.95;5.75;;;30.50;77.40;;;;;;5012559;28;20076;-48
2021/07/22 06:43:15;;;;;;;11.68;6.32;;;30.40;76.50;;;;;;5015189;28;20128;-49
2021/07/22 06:45:43;;;;;;;7.63;5.43;;;30.50;76.50;;;;;;5016086;28;20053;-49
2021/07/22 06:48:11;;;;;;;8.00;5.47;;;30.60;75.70;;;;;;5016466;28;20048;-49
2021/07/22 06:50:39;;;;;;;9.30;5.95;;;30.80;76.10;;;;;;5014360;28;20054;-48
2021/07/22 06:53:06;;;;;;;9.27;5.88;;;30.80;76.40;;;;;;5014306;28;20046;-48
2021/07/22 06:55:34;;;;;;;8.18;5.25;;;30.90;75.90;;;;;;5015940;28;20103;-48
2021/07/22 06:58:09;;;;;;;10.43;5.93;;;31.00;74.90;;;;;;5015999;28;20389;-49
2021/07/22 07:00:37;;;;;;;10.95;5.15;;;31.10;74.40;;;;;;5015876;28;20144;-47
2021/07/22 07:03:06;;;;;;;9.60;5.68;;;31.20;73.60;;;;;;5015825;28;20128;-48
2021/07/22 07:05:34;;;;;;;10.20;5.57;;;31.30;73.20;;;;;;5016072;28;20152;-47
2021/07/22 07:08:02;;;;;;;10.88;6.28;;;31.20;72.80;;;;;;5015397;28;20496;-49
2021/07/22 07:10:30;;;;;;;13.70;6.07;;;31.20;73.20;;;;;;5015746;28;20084;-48
2021/07/22 07:12:58;;;;;;;9.93;5.10;;;31.20;73.20;;;;;;5015766;28;20519;-48
2021/07/22 07:15:40;;;;;;;;;;;31.10;73.60;;;;;;5111968;27;20402;-48
2021/07/22 07:18:08;;;;;;;8.88;5.80;;;31.10;72.70;;;;;;5111240;28;19920;-47
2021/07/22 07:20:36;;;;;;;9.38;5.40;;;31.00;72.60;;;;;;5111368;28;20536;-49
2021/07/22 07:23:04;;;;;;;11.63;5.30;;;31.20;72.90;;;;;;5110256;28;20044;-47
2021/07/22 07:25:33;;;;;;;8.77;5.72;;;31.20;72.00;;;;;;5109346;28;20048;-49
2021/07/22 07:28:01;;;;;;;10.15;5.50;;;31.30;70.50;;;;;;5111058;28;20470;-46
2021/07/22 07:30:28;;;;;;;14.50;6.30;;;31.30;70.60;;;;;;5110865;28;20044;-49
2021/07/22 07:32:56;;;;;;;10.57;6.05;;;31.50;71.30;;;;;;5111282;28;20352;-49
2021/07/22 07:35:25;;;;;;;11.82;5.95;;;31.70;71.30;;;;;;5109743;28;20047;-49
2021/07/22 07:37:53;;;;;;;10.63;5.10;;;31.80;70.50;;;;;;5108892;28;20134;-48
2021/07/22 07:40:21;;;;;;;11.57;5.32;;;32.00;70.40;;;;;;5108932;28;20067;-47
2021/07/22 07:42:49;;;;;;;6.78;5.32;;;32.00;70.20;;;;;;5109228;28;20044;-48
2021/07/22 07:45:17;;;;;;;17.30;5.95;;;32.10;69.70;;;;;;5109504;28;20044;-49
2021/07/22 07:47:47;;;;;;;9.20;5.45;;;32.10;69.40;;;;;;5110663;28;20052;-48
2021/07/22 07:50:15;;;;;;;10.00;6.10;;;32.00;67.20;;;;;;5110812;28;20118;-49
2021/07/22 07:52:43;;;;;;;8.07;5.10;;;31.70;67.80;;;;;;5110246;28;20439;-49
2021/07/22 07:55:15;;;;;;;9.88;5.90;;;31.80;65.80;;;;;;5109782;28;20044;-48
2021/07/22 07:57:43;;;;;;;14.20;6.63;;;31.90;66.30;;;;;;5110156;28;20126;-49
2021/07/22 08:00:12;;;;;;;17.48;8.18;;;32.00;67.40;;;;;;5110301;28;20044;-49
2021/07/22 08:02:44;;;;;;;11.63;6.35;;;32.00;66.40;;;;;;5110428;28;20127;-49
2021/07/22 08:05:11;;;;;;;8.50;5.60;;;32.10;66.00;;;;;;5110055;28;20040;-50
2021/07/22 08:07:39;;;;;;;11.45;5.47;;;32.10;66.10;;;;;;5110132;28;20043;-49
2021/07/22 08:10:07;;;;;;;8.73;4.30;;;32.20;66.10;;;;;;5109306;28;20485;-48
2021/07/22 08:12:36;;;;;;;13.35;5.43;;;32.30;64.90;;;;;;5110093;28;20043;-48
2021/07/22 08:15:05;;;;;;;9.35;5.88;;;32.40;65.70;;;;;;5109606;28;20055;-48
2021/07/22 08:17:33;;;;;;;8.68;5.15;;;32.50;66.00;;;;;;5110207;28;20127;-50
2021/07/22 08:20:02;;;;;;;8.15;4.95;;;32.50;65.00;;;;;;5108641;28;20044;-47
2021/07/22 08:22:30;;;;;;;7.70;4.68;;;32.40;65.60;;;;;;5110166;28;20040;-48
2021/07/22 08:24:58;;;;;;;8.85;5.38;;;32.50;65.80;;;;;;5107633;28;20482;-51
2021/07/22 08:27:31;;;;;;;9.27;5.50;;;32.40;65.40;;;;;;5095886;28;20486;-49
2021/07/22 08:29:59;;;;;;;6.78;4.20;;;32.50;64.50;;;;;;5096166;28;20048;-48
2021/07/22 08:32:26;;;;;;;8.23;4.55;;;32.30;64.10;;;;;;5096126;28;20497;-48
2021/07/22 08:34:54;;;;;;;8.95;5.55;;;32.10;64.70;;;;;;5096276;28;20572;-53
2021/07/22 08:37:22;;;;;;;8.43;5.38;;;32.10;66.40;;;;;;5096303;28;20466;-49
2021/07/22 08:39:51;;;;;;;10.95;4.75;;;32.20;66.30;;;;;;5096361;28;20044;-50
2021/07/22 08:42:24;;;;;;;8.43;4.57;;;32.20;66.40;;;;;;5096190;28;20547;-50
2021/07/22 08:44:52;;;;;;;8.63;4.80;;;32.30;64.90;;;;;;5096484;28;20498;-47
2021/07/22 08:47:20;;;;;;;9.60;4.15;;;32.30;64.70;;;;;;5096162;28;20051;-49
2021/07/22 08:49:49;;;;;;;7.28;4.78;;;32.20;64.60;;;;;;5096073;28;20048;-53
2021/07/22 08:52:17;;;;;;;8.18;4.80;;;32.20;63.70;;;;;;5096048;28;20044;-53
2021/07/22 08:54:44;;;;;;;15.10;4.85;;;32.10;63.90;;;;;;5095922;28;20052;-50
2021/07/22 08:57:14;;;;;;;7.35;4.35;;;32.00;63.00;;;;;;5095906;28;20123;-51
2021/07/22 08:59:43;;;;;;;7.78;4.85;;;32.10;63.80;;;;;;5095906;28;20040;-48
2021/07/22 09:02:18;;;;;;;10.52;4.00;;;32.10;63.60;;;;;;5095919;28;20486;-51
2021/07/22 09:04:59;;;;;;;8.20;5.78;;;32.20;63.20;;;;;;5095879;28;20485;-50
2021/07/22 09:07:28;;;;;;;6.75;4.82;;;32.30;63.80;;;;;;5095806;28;20059;-52
2021/07/22 09:10:05;;;;;;;10.65;4.80;;;32.20;63.10;;;;;;5095924;28;20054;-50
2021/07/22 09:12:47;;;;;;;8.60;4.53;;;32.20;63.20;;;;;;5095807;28;20131;-49
2021/07/22 09:15:31;;;;;;;11.18;4.93;;;32.20;62.40;;;;;;5077105;28;20060;-50
2021/07/22 09:18:22;;;;;;;8.43;5.05;;;32.20;62.30;;;;;;5096058;28;20122;-52
2021/07/22 09:20:52;;;;;;;9.25;4.97;;;32.40;63.80;;;;;;5095519;28;20123;-52
2021/07/22 09:23:25;;;;;;;8.07;5.22;;;32.40;63.20;;;;;;5095622;28;20071;-53
2021/07/22 09:25:54;;;;;;;10.07;4.55;;;32.30;63.20;;;;;;5095409;28;20139;-52
2021/07/22 09:28:27;;;;;;;6.97;4.40;;;32.40;63.20;;;;;;5095423;28;20048;-52
2021/07/22 09:30:58;;;;;;;8.38;4.50;;;32.30;62.60;;;;;;5093739;28;20048;-49
2021/07/22 09:33:40;;;;;;;8.55;4.30;;;32.40;63.20;;;;;;5093603;28;20046;-47
2021/07/22 09:36:20;;;;;;;7.72;4.85;;;32.40;61.20;;;;;;5093620;28;20044;-48
2021/07/22 09:38:48;;;;;;;9.60;4.63;;;32.50;62.30;;;;;;5093791;28;20058;-47
2021/07/22 09:41:23;;;;;;;7.82;4.60;;;32.40;63.10;;;;;;5094598;28;20093;-49
2021/07/22 09:43:51;;;;;;;8.18;5.00;;;32.50;62.10;;;;;;5094609;28;20181;-48
2021/07/22 09:46:18;;;;;;;7.10;4.55;;;32.50;60.80;;;;;;5093466;28;20036;-48
2021/07/22 09:49:11;;;;;;;6.20;4.50;;;32.50;60.40;;;;;;5093345;28;20547;-48
2021/07/22 09:51:39;;;;;;;9.52;4.72;;;32.50;59.50;;;;;;5094223;28;20048;-49
2021/07/22 09:54:07;;;;;;;8.18;4.85;;;32.30;59.40;;;;;;5094130;28;20043;-47
2021/07/22 09:56:39;;;;;;;7.82;5.13;;;32.10;59.40;;;;;;5094403;28;20421;-48
2021/07/22 09:59:11;;;;;;;7.93;4.53;;;32.10;59.00;;;;;;5094357;28;20048;-47
2021/07/22 10:01:45;;;;;;;6.38;4.03;;;32.10;59.40;;;;;;5093256;28;20056;-47
2021/07/22 10:04:14;;;;;;;6.80;4.43;;;32.20;58.80;;;;;;5094509;28;20044;-48
2021/07/22 10:06:47;;;;;;;6.97;4.55;;;32.20;59.00;;;;;;5093535;28;20401;-48
2021/07/22 10:09:20;;;;;;;12.13;4.85;;;32.20;58.00;;;;;;5094172;28;20058;-48
2021/07/22 10:11:49;;;;;;;6.18;4.40;;;32.30;57.30;;;;;;5094056;28;20052;-47
2021/07/22 10:14:21;;;;;;;6.35;4.28;;;32.20;58.80;;;;;;5092646;28;20147;-48
2021/07/22 10:16:50;;;;;;;9.40;4.63;;;32.20;57.90;;;;;;5094476;28;20048;-47
2021/07/22 10:19:19;;;;;;;8.55;4.15;;;32.20;58.20;;;;;;5094126;28;20499;-48
2021/07/22 10:21:48;;;;;;;7.00;4.32;;;32.10;59.10;;;;;;5093419;28;20044;-48
2021/07/22 10:24:16;;;;;;;8.98;4.65;;;32.00;58.70;;;;;;5092252;28;20043;-47
2021/07/22 10:26:45;;;;;;;7.95;4.32;;;31.90;60.00;;;;;;5093745;28;20048;-47
2021/07/22 10:29:13;;;;;;;6.10;4.28;;;31.90;59.10;;;;;;5094034;28;20044;-48
2021/07/22 10:31:47;;;;;;;7.18;4.68;;;31.80;59.30;;;;;;5093920;28;20047;-47
2021/07/22 10:34:18;;;;;;;6.75;4.63;;;31.80;60.40;;;;;;5093975;28;20040;-49
2021/07/22 10:36:48;;;;;;;7.28;4.43;;;31.90;60.80;;;;;;5093495;28;20048;-48
2021/07/22 10:39:16;;;;;;;6.68;4.70;;;31.80;59.60;;;;;;5091852;28;20494;-47
2021/07/22 10:41:43;;;;;;;9.10;5.07;;;31.80;59.30;;;;;;5093615;28;20044;-47
2021/07/22 10:44:20;;;;;;;12.70;4.40;;;31.80;60.70;;;;;;5093883;28;20055;-48
2021/07/22 10:46:55;;;;;;;8.52;4.20;;;31.80;58.10;;;;;;5092903;28;20036;-48
2021/07/22 10:49:36;;;;;;;;;;;31.90;60.20;;;;;;5093843;28;20453;-48
2021/07/22 10:52:04;;;;;;;9.30;4.50;;;32.00;61.00;;;;;;5093545;28;19920;-47
2021/07/22 10:54:41;;;;;;;7.88;4.68;;;32.00;60.60;;;;;;5092930;28;20047;-49
2021/07/22 10:57:35;;;;;;;11.30;4.43;;;31.80;59.80;;;;;;5093102;28;20559;-48
2021/07/22 11:00:07;;;;;;;7.47;4.65;;;31.90;57.00;;;;;;5093169;28;20047;-48
2021/07/22 11:02:39;;;;;;;5.20;3.45;;;31.80;58.70;;;;;;5093855;28;20044;-48
2021/07/22 11:05:09;;;;;;;9.07;4.10;;;31.80;59.70;;;;;;5093550;28;20557;-47
2021/07/22 11:07:37;;;;;;;6.50;4.50;;;31.90;61.10;;;;;;5093178;28;20151;-49
2021/07/22 11:10:13;;;;;;;8.23;4.00;;;32.00;60.70;;;;;;5092601;28;20433;-47
2021/07/22 11:12:49;;;;;;;5.97;4.30;;;31.90;58.50;;;;;;5092653;28;20070;-47
2021/07/22 11:15:38;;;;;;;6.20;3.83;;;32.00;58.50;;;;;;5092756;28;20147;-50
2021/07/22 11:18:43;;;;;;;6.53;3.92;;;32.00;58.60;;;;;;5093306;28;20359;-48
2021/07/22 11:21:12;;;;;;;5.80;3.88;;;31.80;58.70;;;;;;5093096;28;20565;-48
2021/07/22 11:23:40;;;;;;;7.05;4.18;;;31.90;58.90;;;;;;5092845;28;20135;-47
2021/07/22 11:26:08;;;;;;;8.48;4.30;;;31.80;59.30;;;;;;5092280;28;20052;-47
2021/07/22 11:28:36;;;;;;;8.50;3.63;;;31.90;59.60;;;;;;5092730;28;20047;-49
2021/07/22 11:31:08;;;;;;;7.72;4.35;;;31.90;58.50;;;;;;5092949;28;20040;-48
2021/07/22 11:33:39;;;;;;;6.55;3.80;;;31.90;58.00;;;;;;5091859;28;20040;-47
2021/07/22 11:36:11;;;;;;;6.72;3.97;;;31.90;57.50;;;;;;5093429;28;20051;-48
2021/07/22 11:38:39;;;;;;;6.68;4.35;;;31.60;58.40;;;;;;5093092;28;20393;-48
2021/07/22 11:41:13;;;;;;;8.73;3.47;;;31.60;58.40;;;;;;5092069;28;20506;-48
2021/07/22 11:43:44;;;;;;;8.38;4.80;;;31.70;58.50;;;;;;5091113;28;20054;-48
2021/07/22 11:46:16;;;;;;;7.25;4.13;;;31.60;58.40;;;;;;5092611;28;20056;-48
2021/07/22 11:48:44;;;;;;;6.68;4.30;;;31.70;57.60;;;;;;5093120;28;20544;-49
2021/07/22 11:51:15;;;;;;;7.50;4.03;;;31.60;56.90;;;;;;5092873;28;20048;-48
2021/07/22 11:53:43;;;;;;;7.20;4.60;;;31.60;58.20;;;;;;5093147;28;20040;-48
2021/07/22 11:56:16;;;;;;;6.50;3.70;;;31.60;57.20;;;;;;5092013;28;20040;-47
2021/07/22 11:58:46;;;;;;;8.50;4.57;;;31.50;58.00;;;;;;5092402;28;20093;-48
2021/07/22 12:01:14;;;;;;;6.75;4.32;;;31.60;58.40;;;;;;5094340;28;20088;-48
2021/07/22 12:03:46;;;;;;;8.32;4.85;;;31.50;59.00;;;;;;5096591;28;20051;-47
2021/07/22 12:06:25;;;;;;;11.30;5.20;;;31.50;59.20;;;;;;5095075;28;20048;-48
2021/07/22 12:09:09;;;;;;;9.40;5.07;;;31.50;58.70;;;;;;5096486;28;20046;-47
2021/07/22 12:11:43;;;;;;;7.05;4.60;;;31.40;58.90;;;;;;5094217;28;20040;-48
2021/07/22 12:14:11;;;;;;;7.17;3.93;;;31.40;58.70;;;;;;5096001;28;20052;-48
2021/07/22 12:16:40;;;;;;;7.90;4.95;;;31.20;58.80;;;;;;5096304;28;20300;-47
2021/07/22 12:19:09;;;;;;;5.55;4.10;;;31.10;59.90;;;;;;5096535;28;20493;-47
2021/07/22 12:21:37;;;;;;;6.25;4.90;;;31.10;60.00;;;;;;5096484;28;20075;-47
2021/07/22 12:24:17;;;;;;;8.45;4.53;;;31.20;60.30;;;;;;5096031;28;20089;-48
2021/07/22 12:26:45;;;;;;;8.27;4.68;;;31.30;59.70;;;;;;5095767;28;20071;-48
2021/07/22 12:29:18;;;;;;;6.93;4.78;;;31.20;59.30;;;;;;5095671;28;20121;-47
2021/07/22 12:31:46;;;;;;;6.50;4.50;;;31.20;59.00;;;;;;5096176;28;20055;-47
2021/07/22 12:34:14;;;;;;;7.75;4.25;;;31.20;59.30;;;;;;5095990;28;20473;-48
2021/07/22 12:36:50;;;;;;;7.25;4.40;;;31.20;59.00;;;;;;5095578;28;20051;-47
2021/07/22 12:39:28;;;;;;;7.60;5.40;;;31.30;58.30;;;;;;5095804;28;20111;-48
2021/07/22 12:42:12;;;;;;;6.53;4.75;;;31.20;58.40;;;;;;5095727;28;20105;-47
2021/07/22 12:44:44;;;;;;;6.30;4.07;;;31.20;59.30;;;;;;5094211;28;20097;-49
2021/07/22 12:47:31;;;;;;;7.57;4.85;;;31.20;60.80;;;;;;5095515;28;20074;-47
2021/07/22 12:50:00;;;;;;;7.55;4.95;;;31.20;61.10;;;;;;5095466;28;20036;-48
2021/07/22 12:52:28;;;;;;;9.10;4.60;;;31.20;61.40;;;;;;5095722;28;20245;-47
2021/07/22 12:55:01;;;;;;;6.43;5.15;;;31.10;62.00;;;;;;5095760;28;20055;-47
2021/07/22 12:57:36;;;;;;;9.45;4.60;;;31.00;61.70;;;;;;5095614;28;20052;-49
2021/07/22 13:00:14;;;;;;;5.82;4.28;;;30.90;61.60;;;;;;5094994;28;20177;-47
2021/07/22 13:03:11;;;;;;;8.05;4.97;;;30.90;62.60;;;;;;5095583;28;20036;-48
2021/07/22 13:05:40;;;;;;;6.90;4.22;;;30.90;62.00;;;;;;5079119;28;20074;-47
2021/07/22 13:08:07;;;;;;;8.07;4.70;;;30.90;61.50;;;;;;5095625;28;20375;-48
2021/07/22 13:10:46;;;;;;;8.13;4.72;;;31.00;61.40;;;;;;5094012;28;20498;-48
2021/07/22 13:13:13;;;;;;;9.15;5.05;;;30.90;61.70;;;;;;5094770;28;20046;-46
2021/07/22 13:15:41;;;;;;;5.82;4.53;;;31.00;61.80;;;;;;5094830;28;20126;-49